Portada
METAR-TAF:

METAR-TAF

Aeropuertos :

Aeropuerto Internacional de Ginebra

Ginebra, Suiza

latitud: 46-15N, longitud: 006-08E, altitud: 420 m

Observación

El informe se hizo hace 30 minutos, a las 21:20 UTC
Viento 3 kt del norte, variando entre norte-noroeste y noreste
Temperatura 2°C
Humedad 87%
Presión 1006 hPa
Visibilidad: 8000 m
Cielo nuboso a una altura de 1800 ft
Nubes dispersas a una altura de 9000 ft

METAR: LSGG 202120Z 01003KT 330V040 8000 BKN018 SCT090 02/M00 Q1006 NOSIG

Hora: 22:50 (21:50 UTC)

Pronóstico

El informe se hizo hace 1 hora y 25 minutos, a las 20:25 UTC
Pronóstico válido del 20 a las 21 UTC al 22 a las 03 UTC
Viento 3 kt con dirección variable
Visibilidad: 7000 m
Cielo nuboso a una altura de 2000 ft
Temporalmente
del 21 a las 09 UTC al 21 a las 15 UTC
chaparrones de lluvia

TAF: LSGG 202025Z 2021/2203 VRB03KT 7000 BKN020 TX05/2114Z TN02/2106Z TEMPO 2109/2115 SHRA

Observaciones y pronósticos meteorológicos de más de 4000 aeropuertos (mensajes METAR y TAF).

Los puntos amarillos y rojos representan las estaciones disponibles.

Ponga el ratón en el punto deseado para ver el nombre de la estación.

Haga clic para ver las observaciones y los pronósticos meteorológicos.

Para cambiar el mapa : haga clic en los botones verdes con una cruz de color negro para hacer un zoom, en el botón verde con un guión para alejar o en las flechas verdes para mapas adyacentes.


METAR-TAF: